SEAM/ATF METAR and TAF weather

Enter ICAO airport designator
Station Type Date Time Source
SEAM METAR 2021/09/24 17:00 UTC NOAA

SEAM 241700Z 18005KT 9999 BKN015 19/09 Q1030


Station Type Date Time Source
SEAM Decoded METAR 2021/09/24 17:00 UTC NOAA

Ambato / Chachoan, Ecuador (SEAM) 01-12S 078-34W
Sep 24, 2021 - 01:00 PM EDT / 2021.09.24 1700 UTC
Wind: from the S (180 degrees) at 6 MPH (5 KT):0
Visibility: greater than 7 mile(s):0
Sky conditions: mostly cloudy
Temperature: 66 F (19 C)
Dew Point: 48 F (9 C)
Relative Humidity: 52%
Pressure (altimeter): 30.42 in. Hg (1030 hPa)
ob: SEAM 241700Z 18005KT 9999 BKN015 19/09 Q1030
cycle: 17

Station Type Date Time Source
SEAM TAF UTC NOAA

Error!

Example: see airport list